Terminal Aerodrome Forecast
Issued by NWS Portland, OR

Home | Current Version | Previous Version | Text Only | Print | Product List | Glossary On
Versions: 1 2 3 4 5 6 7 8 9 10 11 12 13 14 15 16 17 18 19 20 21 22 23 24 25 26 27 28 29 30
000
FTUS46 KPQR 210532
TAFHIO
TAF
KHIO 210532Z 2106/2206 16012G20KT P6SM FEW009 OVC070
     FM210800 16015G23KT P6SM OVC070
     FM211400 16017G26KT 5SM -RA OVC050
     FM211700 16014G23KT 2SM -RA OVC050
     FM212100 19010KT 3SM -RA BR OVC015
     FM220000 21010KT P6SM -RA OVC050=

USA.gov is the U.S. government's official web portal to all federal, state and local government web resources and services.